»·PEaware :: N252CA KSNA-KBFL

N252CA :: KSNA-KBFL

FLIGHT INFORMATION

Flight Status: Arrived
Operator: Privately registered:
United States
More flights under this callsign
Pilot: Armando C. (16967)
Aircraft: BEECH AIRCRAFT SUPER KING AIR COMMUTER
(BE20)
More flights by this aircraft type
Origin: KSNA John Wayne-Orange Co
United States
Destination: KBFL Meadows
United States
More flights between these airports :: More routes between these airports
Route: +MUSEL8 SLI V459 LHS FASTO2
File this flight plan on PilotEdge
Remarks:
Altitude:
(Current/Filed)
16,000ft
Speed:
(Current/Filed)
260kts
Departed: 14-Apr-18 01:26 PM
Arrived: 14-Apr-18 02:09 PM
Distance/Time
Traveled:
120nm/0:43
Distance/Time
To Go:
Arrived

Flight Plot

Page will automatically refresh every two minutes.

Flight plan parsing failed; only flown route is shown


Map Options




Map Legend


Flown Route
Filed Route
Departure Airport
Arrival Airport
Navaid (VOR, NDB)
Fix

Horizontal Profiles

Position Reports

Time Latitude Longitude Heading Altitude Ground
Speed
14-Apr-18 12:53 35.429914 -119.045767 49 511ft 0kts
14-Apr-18 12:54 35.429914 -119.045767 49 511ft 0kts
14-Apr-18 12:55 35.429914 -119.045767 49 511ft 0kts
14-Apr-18 12:56 35.429914 -119.045767 49 511ft 0kts
14-Apr-18 12:57 35.429914 -119.045767 49 511ft 0kts
14-Apr-18 12:59 33.672457 -117.865908 125 60ft 0kts
14-Apr-18 13:00 33.672457 -117.865907 125 60ft 0kts
14-Apr-18 13:01 33.672455 -117.865904 125 60ft 0kts
14-Apr-18 13:02 33.672454 -117.865901 125 60ft 0kts
14-Apr-18 13:03 33.672452 -117.865899 125 60ft 0kts
14-Apr-18 13:04 33.672451 -117.865897 125 60ft 0kts
14-Apr-18 13:05 33.672449 -117.865894 125 60ft 0kts
14-Apr-18 13:06 33.672448 -117.865892 125 60ft 0kts
14-Apr-18 13:07 33.672447 -117.865890 125 60ft 0kts
14-Apr-18 13:08 33.672446 -117.865888 125 60ft 0kts
14-Apr-18 13:09 33.672444 -117.865886 125 60ft 0kts
14-Apr-18 13:10 33.672443 -117.865884 125 60ft 0kts
14-Apr-18 13:11 33.672442 -117.865882 125 60ft 0kts
14-Apr-18 13:12 33.672441 -117.865880 125 60ft 0kts
14-Apr-18 13:13 33.672439 -117.865878 125 60ft 0kts
14-Apr-18 13:14 33.672438 -117.865875 125 60ft 0kts
14-Apr-18 13:15 33.672437 -117.865873 125 60ft 0kts
14-Apr-18 13:16 33.672435 -117.865871 125 60ft 0kts
14-Apr-18 13:17 33.672433 -117.865867 125 60ft 0kts
14-Apr-18 13:18 33.672431 -117.865864 125 60ft 0kts
14-Apr-18 13:19 33.672414 -117.866056 328 60ft 10kts
14-Apr-18 13:20 33.673383 -117.866719 4 60ft 6kts
14-Apr-18 13:21 33.675981 -117.865884 24 60ft 9kts
14-Apr-18 13:22 33.679556 -117.863801 9 60ft 9kts
14-Apr-18 13:23 33.679677 -117.863798 337 60ft 0kts
14-Apr-18 13:24 33.679679 -117.863799 337 60ft 0kts
14-Apr-18 13:25 33.677641 -117.865804 207 60ft 71kts
14-Apr-18 13:26 33.651331 -117.876714 178 2084ft 86kts
14-Apr-18 13:27 33.620547 -117.880038 182 4008ft 132kts
14-Apr-18 13:28 33.583681 -117.885874 188 6545ft 136kts
14-Apr-18 13:29 33.550899 -117.911485 249 8068ft 189kts
14-Apr-18 13:30 33.541607 -117.983968 289 8180ft 233kts
14-Apr-18 13:31 33.591694 -118.013373 352 10001ft 200kts
14-Apr-18 13:32 33.645340 -118.022957 349 11778ft 190kts
14-Apr-18 13:33 33.696741 -118.034764 348 13563ft 186kts
14-Apr-18 13:34 33.747881 -118.046900 348 14985ft 203kts
14-Apr-18 13:35 33.804427 -118.064941 333 15962ft 220kts
14-Apr-18 13:36 33.863765 -118.101029 333 16002ft 252kts
14-Apr-18 13:37 33.929741 -118.139169 334 16010ft 269kts
14-Apr-18 13:38 33.998763 -118.178924 333 16000ft 277kts
14-Apr-18 13:39 34.068313 -118.219282 333 15998ft 277kts
14-Apr-18 13:40 34.137816 -118.259578 334 16003ft 276kts
14-Apr-18 13:41 34.207134 -118.299763 335 16004ft 276kts
14-Apr-18 13:42 34.276650 -118.340036 335 16003ft 277kts
14-Apr-18 13:43 34.346277 -118.380373 334 16022ft 277kts
14-Apr-18 13:44 34.416000 -118.420992 334 16021ft 278kts
14-Apr-18 13:45 34.485683 -118.461723 335 16017ft 279kts
14-Apr-18 13:46 34.555827 -118.502666 335 16019ft 279kts
14-Apr-18 13:47 34.625924 -118.543677 335 16019ft 278kts
14-Apr-18 13:48 34.696182 -118.586596 325 16006ft 287kts
14-Apr-18 13:49 34.757468 -118.649627 314 16003ft 290kts
14-Apr-18 13:50 34.818206 -118.714423 316 16009ft 291kts
14-Apr-18 13:51 34.880258 -118.778348 317 16008ft 293kts
14-Apr-18 13:52 34.943105 -118.841718 328 16008ft 293kts
14-Apr-18 13:53 35.020865 -118.861329 359 16027ft 282kts
14-Apr-18 13:54 35.099572 -118.861968 1 15360ft 283kts
14-Apr-18 13:55 35.173409 -118.861613 0 14346ft 247kts
14-Apr-18 13:56 35.238261 -118.861772 359 14027ft 221kts
14-Apr-18 13:57 35.289806 -118.894279 290 12903ft 237kts
14-Apr-18 13:58 35.305379 -118.973462 282 11410ft 239kts
14-Apr-18 13:59 35.318825 -119.052875 282 9911ft 237kts
14-Apr-18 14:00 35.303955 -119.123091 207 8421ft 234kts
14-Apr-18 14:01 35.244236 -119.122297 130 6927ft 231kts
14-Apr-18 14:02 35.252681 -119.051731 54 5453ft 228kts
14-Apr-18 14:03 35.288117 -118.992900 52 5026ft 198kts
14-Apr-18 14:04 35.328421 -118.955361 356 4517ft 184kts
14-Apr-18 14:05 35.372743 -118.979902 310 3514ft 163kts
14-Apr-18 14:06 35.399444 -119.014936 318 2016ft 116kts
14-Apr-18 14:07 35.421352 -119.041376 316 807ft 113kts
14-Apr-18 14:08 35.438067 -119.061258 316 511ft 14kts
14-Apr-18 14:09 35.440953 -119.062770 42 511ft 0kts
14-Apr-18 14:10 35.437504 -119.058141 135 511ft 28kts
14-Apr-18 14:11 35.431083 -119.050460 135 511ft 34kts
14-Apr-18 14:12 35.429313 -119.046353 47 511ft 4kts
14-Apr-18 14:13 35.427806 -119.044274 136 511ft 0kts
14-Apr-18 14:14 35.427804 -119.044272 136 511ft 0kts
14-Apr-18 14:15 35.427804 -119.044271 136 511ft 0kts
14-Apr-18 14:16 35.427804 -119.044271 136 511ft 0kts

Navigation Log

Ident Type
Flight plan parsing failed, navigation log unavailable